createdAt,value
2022-10-17T00:00:09.522Z,12.2
2022-10-17T00:03:09.469Z,12.2
2022-10-17T00:06:09.560Z,12.1
2022-10-17T00:09:09.413Z,12.1
2022-10-17T00:12:09.483Z,12.2
2022-10-17T00:15:09.578Z,12.3
2022-10-17T00:18:09.418Z,12.4
2022-10-17T00:21:09.480Z,12.6
2022-10-17T00:24:09.588Z,12.6
2022-10-17T00:27:09.477Z,12.6
2022-10-17T00:30:09.550Z,12.7
2022-10-17T00:33:09.434Z,12.8
2022-10-17T00:36:09.533Z,12.8
2022-10-17T00:39:09.518Z,12.9
2022-10-17T00:42:09.496Z,12.9
2022-10-17T00:45:09.582Z,12.9
2022-10-17T00:48:09.534Z,12.9
2022-10-17T00:51:09.830Z,12.9
2022-10-17T00:54:09.542Z,12.9
2022-10-17T00:57:09.472Z,12.8
2022-10-17T01:00:09.526Z,12.8
2022-10-17T01:03:09.514Z,12.8
2022-10-17T01:06:09.613Z,12.8
2022-10-17T01:09:09.463Z,12.9
2022-10-17T01:12:09.536Z,12.9
2022-10-17T01:15:09.608Z,12.9
2022-10-17T01:18:09.556Z,12.9
2022-10-17T01:21:09.619Z,12.9
2022-10-17T01:24:09.462Z,12.9
2022-10-17T01:27:09.550Z,12.9
2022-10-17T01:30:09.533Z,12.9
2022-10-17T01:33:09.442Z,13
2022-10-17T01:36:14.772Z,12.9
2022-10-17T01:39:09.548Z,12.9
2022-10-17T01:42:09.459Z,12.9
2022-10-17T01:45:09.532Z,13
2022-10-17T01:48:09.606Z,12.9
2022-10-17T01:51:09.566Z,12.8
2022-10-17T01:54:09.512Z,12.8
2022-10-17T01:57:09.473Z,12.8
2022-10-17T02:00:09.597Z,12.8
2022-10-17T02:03:09.527Z,12.8
2022-10-17T02:06:09.529Z,12.6
2022-10-17T02:09:09.514Z,12.6
2022-10-17T02:12:09.828Z,12.4
2022-10-17T02:15:10.033Z,12.4
2022-10-17T02:18:09.557Z,12.3
2022-10-17T02:21:09.551Z,12.2
2022-10-17T02:24:09.482Z,12.2
2022-10-17T02:27:09.508Z,12.1
2022-10-17T02:30:09.516Z,12
2022-10-17T02:33:09.473Z,11.9
2022-10-17T02:36:09.498Z,11.9
2022-10-17T02:39:09.469Z,11.8
2022-10-17T02:42:09.456Z,11.8
2022-10-17T02:45:09.512Z,11.8
2022-10-17T02:48:09.451Z,11.8
2022-10-17T02:51:09.480Z,11.8
2022-10-17T02:54:09.500Z,11.7
2022-10-17T02:57:09.464Z,11.7
2022-10-17T03:00:09.557Z,11.6
2022-10-17T03:03:09.714Z,11.6
2022-10-17T03:06:09.759Z,11.6
2022-10-17T03:09:09.522Z,11.6
2022-10-17T03:12:09.526Z,11.6
2022-10-17T03:15:09.594Z,11.6
2022-10-17T03:18:09.595Z,11.6
2022-10-17T03:21:09.456Z,11.6
2022-10-17T03:24:09.475Z,11.6
2022-10-17T03:27:09.418Z,11.6
2022-10-17T03:30:09.528Z,11.7
2022-10-17T03:33:09.428Z,11.7
2022-10-17T03:36:09.520Z,11.5
2022-10-17T03:39:09.471Z,11.4
2022-10-17T03:42:09.463Z,11.4
2022-10-17T03:45:09.517Z,11.3
2022-10-17T03:48:09.456Z,11.4
2022-10-17T03:51:09.485Z,11.3
2022-10-17T03:54:09.465Z,11.2
2022-10-17T03:57:09.498Z,11.1
2022-10-17T04:00:09.576Z,11.1
2022-10-17T04:03:11.676Z,11
2022-10-17T04:06:09.467Z,11
2022-10-17T04:09:09.545Z,11
2022-10-17T04:12:09.455Z,11
2022-10-17T04:15:09.508Z,11
2022-10-17T04:18:09.600Z,11
2022-10-17T04:21:09.536Z,10.9
2022-10-17T04:24:09.524Z,10.9
2022-10-17T04:27:09.612Z,10.9
2022-10-17T04:30:09.547Z,10.8
2022-10-17T04:33:09.499Z,10.8
2022-10-17T04:36:09.490Z,10.8
2022-10-17T04:39:09.690Z,10.8
2022-10-17T04:42:09.469Z,10.8
2022-10-17T04:45:09.446Z,10.6
2022-10-17T04:48:09.417Z,10.6
2022-10-17T04:51:09.450Z,10.6
2022-10-17T04:54:09.472Z,10.7
2022-10-17T04:57:09.486Z,10.8
2022-10-17T05:03:09.520Z,11.3
2022-10-17T05:06:09.508Z,11.4
2022-10-17T05:09:09.473Z,11.3
2022-10-17T05:12:14.809Z,11.3
2022-10-17T05:15:09.529Z,11.1
2022-10-17T05:18:09.501Z,10.9
2022-10-17T05:21:09.516Z,10.8
2022-10-17T05:24:09.540Z,10.7
2022-10-17T05:27:09.477Z,10.6
2022-10-17T05:30:09.535Z,10.6
2022-10-17T05:33:09.479Z,10.6
2022-10-17T05:36:09.485Z,10.6
2022-10-17T05:39:09.546Z,10.4
2022-10-17T05:42:09.504Z,10.3
2022-10-17T05:45:09.528Z,10.2
2022-10-17T05:48:09.569Z,10.1
2022-10-17T05:51:09.868Z,10.3
2022-10-17T05:54:09.641Z,10.4
2022-10-17T05:57:09.561Z,10.5
2022-10-17T06:00:09.635Z,10.4
2022-10-17T06:03:09.536Z,10.4
2022-10-17T06:06:09.710Z,10.3
2022-10-17T06:09:09.878Z,10.4
2022-10-17T06:12:09.566Z,10.4
2022-10-17T06:15:09.565Z,10.4
2022-10-17T06:18:09.558Z,10.6
2022-10-17T06:21:09.503Z,11.3
2022-10-17T06:24:09.611Z,11.5
2022-10-17T06:27:16.239Z,11.6
2022-10-17T06:30:09.571Z,11.6
2022-10-17T06:33:09.442Z,11.5
2022-10-17T06:36:09.691Z,11.4
2022-10-17T06:39:09.499Z,11.6
2022-10-17T06:42:09.563Z,11.6
2022-10-17T06:45:09.539Z,11.8
2022-10-17T06:48:09.621Z,11.8
2022-10-17T06:51:09.534Z,11.8
2022-10-17T06:54:09.804Z,11.8
2022-10-17T06:57:09.487Z,11.7
2022-10-17T07:00:09.615Z,11.8
2022-10-17T07:03:09.529Z,11.7
2022-10-17T07:06:09.522Z,11.8
2022-10-17T07:09:09.523Z,11.8
2022-10-17T07:12:09.693Z,11.9
2022-10-17T07:15:09.574Z,12.1
2022-10-17T07:18:09.556Z,12.2
2022-10-17T07:21:09.572Z,12.5
2022-10-17T07:24:09.545Z,12.8
2022-10-17T07:27:09.611Z,13.1
2022-10-17T07:30:09.581Z,13.4
2022-10-17T07:33:11.586Z,13.5
2022-10-17T07:36:09.599Z,13.6
2022-10-17T07:39:09.540Z,13.7
2022-10-17T07:42:09.609Z,13.8
2022-10-17T07:45:09.546Z,13.8
2022-10-17T07:48:09.544Z,13.9
2022-10-17T07:51:09.512Z,14
2022-10-17T07:54:09.577Z,14.1
2022-10-17T07:57:09.605Z,14.2
2022-10-17T08:00:09.637Z,14.3
2022-10-17T08:03:09.522Z,14.6
2022-10-17T08:06:09.608Z,14.8
2022-10-17T08:09:09.491Z,15.1
2022-10-17T08:12:09.672Z,15.4
2022-10-17T08:15:09.584Z,15.9
2022-10-17T08:18:09.594Z,16.3
2022-10-17T08:21:09.570Z,16.8
2022-10-17T08:24:09.590Z,17.2
2022-10-17T08:27:09.578Z,17.4
2022-10-17T08:30:09.649Z,17.6
2022-10-17T08:33:09.527Z,17.8
2022-10-17T08:36:09.589Z,18
2022-10-17T08:39:09.652Z,18.3
2022-10-17T08:42:09.542Z,18.4
2022-10-17T08:45:09.570Z,18.8
2022-10-17T08:48:09.564Z,19.1
2022-10-17T08:51:09.518Z,19.1
2022-10-17T08:54:09.579Z,19.4
2022-10-17T08:57:09.497Z,19.9
2022-10-17T09:00:09.698Z,20.3
2022-10-17T09:03:09.848Z,20.8
2022-10-17T09:06:09.558Z,21.4
2022-10-17T09:09:09.565Z,21.6
2022-10-17T09:12:09.538Z,21.9
2022-10-17T09:15:09.886Z,22
2022-10-17T09:18:09.667Z,21.9
2022-10-17T09:21:09.482Z,22.3
2022-10-17T09:24:24.248Z,22.2
2022-10-17T09:27:09.611Z,22.4
2022-10-17T09:30:33.404Z,22.5
2022-10-17T09:33:10.848Z,22.5
2022-10-17T09:36:09.619Z,22.5
2022-10-17T09:39:09.559Z,22.4
2022-10-17T09:42:09.606Z,22.3
2022-10-17T09:45:09.592Z,22.3
2022-10-17T09:48:10.965Z,22.3
2022-10-17T09:51:34.544Z,22.4
2022-10-17T09:54:09.579Z,22.4
2022-10-17T09:57:09.548Z,22.4
2022-10-17T10:00:10.062Z,22.4
2022-10-17T10:03:09.567Z,22.4
2022-10-17T10:06:09.553Z,22.5
2022-10-17T10:09:09.545Z,22.7
2022-10-17T10:12:10.034Z,22.9
2022-10-17T10:15:09.557Z,22.9
2022-10-17T10:18:09.598Z,23
2022-10-17T10:21:09.576Z,23.1
2022-10-17T10:24:09.560Z,22.9
2022-10-17T10:27:09.500Z,22.8
2022-10-17T10:30:09.698Z,22.7
2022-10-17T10:33:09.572Z,22.4
2022-10-17T10:36:09.799Z,22.2
2022-10-17T10:39:13.566Z,22.1
2022-10-17T10:42:10.196Z,22.2
2022-10-17T10:45:19.032Z,22.6
2022-10-17T10:48:09.633Z,22.9
2022-10-17T10:51:09.618Z,23.1
2022-10-17T10:54:09.615Z,23.3
2022-10-17T10:57:09.565Z,23.4
2022-10-17T11:00:10.172Z,23.4
2022-10-17T11:03:16.262Z,23.4
2022-10-17T11:06:10.163Z,23.3
2022-10-17T11:09:09.603Z,23.3
2022-10-17T11:12:09.572Z,23.4
2022-10-17T11:15:09.636Z,23.7
2022-10-17T11:18:09.577Z,23.9
2022-10-17T11:21:09.566Z,23.7
2022-10-17T11:24:13.695Z,23.6
2022-10-17T11:27:09.537Z,23.5
2022-10-17T11:30:09.687Z,23.4
2022-10-17T11:33:09.575Z,23.4
2022-10-17T11:36:09.567Z,23.6
2022-10-17T11:39:09.590Z,23.7
2022-10-17T11:42:13.069Z,23.9
2022-10-17T11:45:09.569Z,23.9
2022-10-17T11:48:09.607Z,24.4
2022-10-17T11:54:09.643Z,25.8
2022-10-17T11:57:14.031Z,26.1
2022-10-17T12:00:09.792Z,25.6
2022-10-17T12:03:09.568Z,25.3
2022-10-17T12:06:09.528Z,25.2
2022-10-17T12:09:09.555Z,25
2022-10-17T12:12:09.616Z,25.1
2022-10-17T12:15:10.246Z,25.3
2022-10-17T12:18:10.085Z,25.4
2022-10-17T12:21:09.615Z,25.3
2022-10-17T12:24:09.630Z,25.3
2022-10-17T12:27:09.607Z,25.4
2022-10-17T12:30:09.753Z,25.7
2022-10-17T12:33:16.800Z,25.7
2022-10-17T12:36:09.687Z,25.6
2022-10-17T12:39:10.021Z,25.6
2022-10-17T12:42:09.588Z,25.7
2022-10-17T12:45:09.689Z,25.9
2022-10-17T12:48:09.999Z,25.9
2022-10-17T12:51:44.633Z,25.9
2022-10-17T12:54:09.639Z,25.7
2022-10-17T12:57:09.658Z,25.7
2022-10-17T13:00:09.775Z,25.8
2022-10-17T13:03:09.633Z,25.6
2022-10-17T13:06:09.679Z,25.3
2022-10-17T13:09:14.258Z,24.9
2022-10-17T13:12:09.609Z,24.6
2022-10-17T13:15:09.743Z,24.4
2022-10-17T13:18:09.570Z,24.3
2022-10-17T13:21:09.585Z,24.1
2022-10-17T13:24:09.567Z,24.1
2022-10-17T13:27:09.610Z,24.1
2022-10-17T13:30:09.830Z,23.9
2022-10-17T13:33:09.535Z,23.8
2022-10-17T13:36:10.586Z,23.8
2022-10-17T13:39:17.149Z,23.7
2022-10-17T13:42:09.637Z,23.7
2022-10-17T13:45:09.608Z,23.6
2022-10-17T13:48:09.693Z,23.6
2022-10-17T13:51:17.863Z,23.6
2022-10-17T13:54:09.581Z,23.6
2022-10-17T13:57:09.586Z,23.6
2022-10-17T14:00:15.825Z,23.6
2022-10-17T14:03:09.580Z,23.6
2022-10-17T14:06:09.685Z,23.7
2022-10-17T14:09:09.522Z,23.7
2022-10-17T14:12:09.637Z,23.7
2022-10-17T14:15:20.472Z,23.6
2022-10-17T14:18:16.703Z,23.5
2022-10-17T14:24:09.547Z,23.5
2022-10-17T14:27:09.479Z,23.6
2022-10-17T14:30:09.727Z,23.7
2022-10-17T14:33:09.559Z,23.9
2022-10-17T14:36:09.711Z,24.1
2022-10-17T14:39:16.753Z,24.2
2022-10-17T14:42:13.527Z,24.2
2022-10-17T14:45:09.635Z,24.1
2022-10-17T14:48:09.699Z,24
2022-10-17T14:51:09.593Z,23.9
2022-10-17T14:54:14.531Z,23.7
2022-10-17T14:57:09.613Z,23.6
2022-10-17T15:00:09.670Z,23.4
2022-10-17T15:03:10.053Z,23.4
2022-10-17T15:06:09.679Z,23.3
2022-10-17T15:09:09.552Z,23.3
2022-10-17T15:12:09.529Z,23.2
2022-10-17T15:15:09.628Z,23.1
2022-10-17T15:18:09.658Z,23.1
2022-10-17T15:21:49.591Z,23
2022-10-17T15:24:09.614Z,22.9
2022-10-17T15:27:09.771Z,22.9
2022-10-17T15:30:09.638Z,22.8
2022-10-17T15:33:09.682Z,22.7
2022-10-17T15:36:09.557Z,22.6
2022-10-17T15:39:09.541Z,22.5
2022-10-17T15:42:09.760Z,22.4
2022-10-17T15:45:10.776Z,22.4
2022-10-17T15:48:09.625Z,22.2
2022-10-17T15:51:09.569Z,22.1
2022-10-17T15:54:10.204Z,22
2022-10-17T15:57:09.643Z,21.9
2022-10-17T16:00:12.844Z,21.8
2022-10-17T16:03:09.598Z,21.7
2022-10-17T16:06:14.417Z,21.6
2022-10-17T16:09:09.589Z,21.6
2022-10-17T16:12:09.648Z,21.4
2022-10-17T16:15:09.575Z,21.4
2022-10-17T16:18:16.674Z,21.3
2022-10-17T16:21:09.569Z,21.2
2022-10-17T16:24:09.505Z,21.2
2022-10-17T16:27:09.507Z,21.2
2022-10-17T16:30:09.634Z,21.2
2022-10-17T16:33:09.630Z,21.2
2022-10-17T16:36:09.577Z,21.2
2022-10-17T16:39:09.544Z,21.2
2022-10-17T16:42:09.553Z,21.2
2022-10-17T16:45:09.505Z,21.2
2022-10-17T16:48:09.793Z,21.1
2022-10-17T16:51:09.477Z,21.1
2022-10-17T16:54:09.531Z,21.1
2022-10-17T16:57:09.692Z,21.1
2022-10-17T17:00:09.689Z,21.1
2022-10-17T17:03:09.584Z,21.1
2022-10-17T17:06:09.633Z,21
2022-10-17T17:09:09.499Z,20.9
2022-10-17T17:12:09.602Z,20.8
2022-10-17T17:15:09.577Z,20.8
2022-10-17T17:18:15.926Z,20.7
2022-10-17T17:21:09.569Z,20.6
2022-10-17T17:24:09.486Z,20.6
2022-10-17T17:27:15.846Z,20.6
2022-10-17T17:30:10.190Z,20.5
2022-10-17T17:33:09.497Z,20.4
2022-10-17T17:36:09.507Z,20.3
2022-10-17T17:39:09.545Z,20.1
2022-10-17T17:42:09.510Z,19.9
2022-10-17T17:45:09.557Z,19.8
2022-10-17T17:48:09.524Z,19.8
2022-10-17T17:51:09.579Z,19.6
2022-10-17T17:54:09.641Z,19.6
2022-10-17T17:57:09.578Z,19.5
2022-10-17T18:00:09.680Z,19.4
2022-10-17T18:03:09.518Z,19.5
2022-10-17T18:06:09.499Z,19.5
2022-10-17T18:09:09.600Z,19.5
2022-10-17T18:12:09.821Z,19.4
2022-10-17T18:15:09.531Z,19.4
2022-10-17T18:18:09.567Z,19.5
2022-10-17T18:21:09.447Z,19.4
2022-10-17T18:24:09.644Z,19.4
2022-10-17T18:27:09.568Z,19.4
2022-10-17T18:30:09.519Z,19.4
2022-10-17T18:33:09.563Z,19.4
2022-10-17T18:36:15.566Z,19.3
2022-10-17T18:39:09.577Z,19.2
2022-10-17T18:42:09.525Z,19.1
2022-10-17T18:45:09.503Z,19.1
2022-10-17T18:48:09.541Z,19
2022-10-17T18:51:09.598Z,19
2022-10-17T18:54:09.554Z,18.9
2022-10-17T18:57:09.604Z,18.9
2022-10-17T19:00:09.684Z,18.8
2022-10-17T19:03:09.540Z,18.8
2022-10-17T19:06:10.237Z,18.8
2022-10-17T19:09:09.472Z,18.7
2022-10-17T19:12:09.475Z,18.7
2022-10-17T19:15:09.551Z,18.6
2022-10-17T19:18:09.560Z,18.6
2022-10-17T19:21:09.618Z,18.5
2022-10-17T19:24:09.552Z,18.4
2022-10-17T19:27:09.693Z,18.3
2022-10-17T19:30:09.602Z,18.2
2022-10-17T19:33:09.543Z,18.1
2022-10-17T19:36:09.500Z,18.1
2022-10-17T19:39:09.554Z,18
2022-10-17T19:42:16.066Z,17.9
2022-10-17T19:45:09.471Z,17.8
2022-10-17T19:48:09.567Z,17.7
2022-10-17T19:51:09.510Z,17.6
2022-10-17T19:54:09.589Z,17.5
2022-10-17T19:57:15.114Z,17.4
2022-10-17T20:00:09.609Z,17.4
2022-10-17T20:03:09.506Z,17.4
2022-10-17T20:06:09.610Z,17.3
2022-10-17T20:09:13.876Z,17.2
2022-10-17T20:12:09.519Z,17.2
2022-10-17T20:15:09.462Z,17.2
2022-10-17T20:18:09.536Z,17.2
2022-10-17T20:21:09.564Z,17.2
2022-10-17T20:24:09.479Z,17.2
2022-10-17T20:27:09.586Z,17.2
2022-10-17T20:30:09.547Z,17.1
2022-10-17T20:33:09.555Z,17.1
2022-10-17T20:36:09.554Z,17.1
2022-10-17T20:39:09.594Z,17.2
2022-10-17T20:42:09.551Z,17.2
2022-10-17T20:45:09.737Z,17.1
2022-10-17T20:48:09.613Z,17.1
2022-10-17T20:51:09.635Z,17.1
2022-10-17T20:54:10.004Z,17.2
2022-10-17T20:57:13.895Z,17.2
2022-10-17T21:00:09.566Z,17.3
2022-10-17T21:03:09.608Z,17.3
2022-10-17T21:06:09.541Z,17.4
2022-10-17T21:09:09.521Z,17.4
2022-10-17T21:15:09.531Z,17.4
2022-10-17T21:18:09.556Z,17.4
2022-10-17T21:21:10.710Z,17.4
2022-10-17T21:24:09.505Z,17.4
2022-10-17T21:27:09.699Z,17.3
2022-10-17T21:30:09.812Z,17.3
2022-10-17T21:33:09.691Z,17.2
2022-10-17T21:36:09.537Z,17.2
2022-10-17T21:39:09.822Z,17.1
2022-10-17T21:42:09.551Z,17.1
2022-10-17T21:45:28.054Z,17
2022-10-17T21:48:22.384Z,16.9
2022-10-17T21:51:09.566Z,16.9
2022-10-17T21:54:12.467Z,16.9
2022-10-17T21:57:09.576Z,16.8
2022-10-17T22:00:09.855Z,16.8
2022-10-17T22:03:09.506Z,16.8
2022-10-17T22:06:48.145Z,16.8
2022-10-17T22:09:09.531Z,16.8
2022-10-17T22:12:09.496Z,16.8
2022-10-17T22:15:09.798Z,16.7
2022-10-17T22:18:09.585Z,16.7
2022-10-17T22:21:09.517Z,16.7
2022-10-17T22:24:09.904Z,16.6
2022-10-17T22:27:09.521Z,16.6
2022-10-17T22:30:09.605Z,16.6
2022-10-17T22:33:09.607Z,16.5
2022-10-17T22:36:09.543Z,16.4
2022-10-17T22:39:09.581Z,16.4
2022-10-17T22:42:09.462Z,16.4
2022-10-17T22:45:09.554Z,16.4
2022-10-17T22:48:09.511Z,16.4
2022-10-17T22:51:09.509Z,16.4
2022-10-17T22:54:09.566Z,16.4
2022-10-17T22:57:09.504Z,16.4
2022-10-17T23:00:09.528Z,16.3
2022-10-17T23:03:09.552Z,16.3
2022-10-17T23:06:09.726Z,16.3
2022-10-17T23:09:09.522Z,16.2
2022-10-17T23:12:09.536Z,16.2
2022-10-17T23:15:09.526Z,16.2
2022-10-17T23:18:09.528Z,16.1
2022-10-17T23:21:09.591Z,16.1
2022-10-17T23:24:09.527Z,16.1
2022-10-17T23:27:09.552Z,16.1
2022-10-17T23:30:09.648Z,16.1
2022-10-17T23:33:09.480Z,16.1
2022-10-17T23:36:09.614Z,16.1
2022-10-17T23:39:09.477Z,16
2022-10-17T23:42:09.529Z,16
2022-10-17T23:45:09.588Z,15.9
2022-10-17T23:48:09.560Z,15.9
2022-10-17T23:51:09.514Z,15.9
2022-10-17T23:54:09.555Z,15.8
2022-10-17T23:57:09.603Z,15.8
